Time;durP1;ratioP1;P1;durP2;ratioP2;P2;SDS_P1;SDS_P2;PMS_P1;PMS_P2;Temp;Humidity;BMP_temperature;BMP_pressure;BME280_temperature;BME280_humidity;BME280_pressure;Samples;Min_cycle;Max_cycle;Signal;HPM_P1;HPM_P2
2021/11/03 00:01:23;;;;;;;1.73;1.10;;;22.70;52.80;;;;;;5057719;28;20709;-58
2021/11/03 00:03:50;;;;;;;1.50;1.10;;;22.70;52.80;;;;;;5035749;28;20370;-58
2021/11/03 00:06:21;;;;;;;1.95;1.20;;;22.70;52.80;;;;;;5055401;28;20157;-58
2021/11/03 00:08:48;;;;;;;3.40;1.20;;;22.70;52.90;;;;;;5049323;28;20025;-58
2021/11/03 00:11:15;;;;;;;2.03;1.20;;;22.60;52.80;;;;;;5038937;28;20021;-58
2021/11/03 00:13:41;;;;;;;2.13;1.20;;;22.60;52.80;;;;;;5052871;28;20029;-58
2021/11/03 00:16:07;;;;;;;2.72;1.27;;;22.60;52.90;;;;;;5044803;28;20385;-58
2021/11/03 00:18:32;;;;;;;2.70;1.13;;;22.60;52.90;;;;;;5050342;28;20088;-55
2021/11/03 00:21:00;;;;;;;2.03;1.13;;;22.60;52.90;;;;;;5045470;28;20047;-58
2021/11/03 00:23:26;;;;;;;2.17;1.00;;;22.60;53.00;;;;;;5041485;28;20035;-59
2021/11/03 00:25:51;;;;;;;1.52;1.10;;;22.50;52.90;;;;;;5050545;28;20817;-56
2021/11/03 00:28:20;;;;;;;1.58;1.08;;;22.50;52.90;;;;;;5037428;28;20031;-58
2021/11/03 00:30:48;;;;;;;1.70;1.00;;;22.50;52.90;;;;;;5046944;28;20033;-58
2021/11/03 00:33:15;;;;;;;2.27;1.20;;;22.50;52.90;;;;;;5039138;28;20029;-58
2021/11/03 00:35:40;;;;;;;2.63;1.30;;;22.50;53.00;;;;;;5050830;28;20033;-58
2021/11/03 00:38:06;;;;;;;2.05;1.10;;;22.50;53.00;;;;;;5041905;28;20151;-59
2021/11/03 00:40:32;;;;;;;1.83;1.00;;;22.50;53.00;;;;;;5034605;28;20108;-57
2021/11/03 00:42:58;;;;;;;1.83;1.10;;;22.50;53.10;;;;;;5033655;28;20057;-55
2021/11/03 00:45:24;;;;;;;1.98;1.23;;;22.40;53.00;;;;;;5046095;28;20060;-56
2021/11/03 00:47:50;;;;;;;1.75;1.10;;;22.40;53.10;;;;;;5050791;28;20463;-58
2021/11/03 00:50:20;;;;;;;2.28;1.30;;;22.40;53.10;;;;;;5056935;28;20104;-58
2021/11/03 00:52:45;;;;;;;1.70;1.10;;;22.40;53.10;;;;;;5033965;28;20025;-58
2021/11/03 00:55:11;;;;;;;1.83;1.00;;;22.40;53.20;;;;;;5045837;28;20040;-57
2021/11/03 00:57:37;;;;;;;1.67;1.10;;;22.40;53.20;;;;;;5042786;28;20370;-54
2021/11/03 01:00:07;;;;;;;2.78;1.30;;;22.30;53.20;;;;;;5054570;28;20029;-58
2021/11/03 01:02:32;;;;;;;1.60;1.00;;;22.30;53.20;;;;;;5056086;28;20433;-58
2021/11/03 01:04:58;;;;;;;2.80;1.08;;;22.30;53.20;;;;;;5060214;28;20048;-58
2021/11/03 01:07:23;;;;;;;2.00;1.08;;;22.30;53.20;;;;;;5039878;28;20033;-58
2021/11/03 01:09:49;;;;;;;1.30;0.90;;;22.30;53.20;;;;;;5045799;28;20120;-56
2021/11/03 01:12:15;;;;;;;2.47;1.20;;;22.30;53.20;;;;;;5037545;28;20027;-58
2021/11/03 01:14:41;;;;;;;1.52;1.00;;;22.30;53.30;;;;;;5048149;28;20084;-58
2021/11/03 01:17:07;;;;;;;1.55;0.90;;;22.30;53.30;;;;;;5056587;28;20020;-58
2021/11/03 01:19:33;;;;;;;1.63;0.90;;;22.30;53.30;;;;;;5058118;28;20115;-56
2021/11/03 01:21:59;;;;;;;1.17;0.90;;;22.20;53.30;;;;;;5053246;28;20123;-56
2021/11/03 01:24:24;;;;;;;1.85;1.10;;;22.20;53.30;;;;;;5048902;28;20120;-58
2021/11/03 01:26:50;;;;;;;2.60;1.20;;;22.20;53.30;;;;;;5047173;28;20066;-58
2021/11/03 01:29:16;;;;;;;1.70;1.10;;;22.20;53.40;;;;;;5041933;28;20018;-58
2021/11/03 01:31:42;;;;;;;1.60;0.90;;;22.20;53.40;;;;;;5033907;28;20411;-57
2021/11/03 01:34:08;;;;;;;1.92;1.00;;;22.20;53.40;;;;;;5042210;28;20434;-58
2021/11/03 01:36:34;;;;;;;1.80;1.00;;;22.10;53.30;;;;;;5049852;28;20032;-57
2021/11/03 01:38:59;;;;;;;1.92;0.90;;;22.10;53.30;;;;;;5045162;28;20493;-55
2021/11/03 01:41:25;;;;;;;2.05;1.10;;;22.10;53.40;;;;;;5044804;28;20039;-58
2021/11/03 01:44:01;;;;;;;1.50;1.00;;;22.10;53.50;;;;;;5039558;28;20479;-58
2021/11/03 01:46:57;;;;;;;1.67;1.35;;;22.10;53.40;;;;;;5050180;28;20028;-58
2021/11/03 01:49:28;;;;;;;1.92;0.90;;;22.10;53.50;;;;;;5045503;28;20121;-59
2021/11/03 01:52:15;;;;;;;1.60;0.90;;;22.10;53.50;;;;;;5045916;28;20036;-58
2021/11/03 01:54:44;;;;;;;1.17;0.90;;;22.00;53.40;;;;;;5064728;28;20032;-59
2021/11/03 01:57:18;;;;;;;1.58;1.00;;;22.00;53.40;;;;;;5039459;28;20030;-58
2021/11/03 01:59:49;;;;;;;1.70;1.00;;;22.00;53.50;;;;;;5042074;28;20041;-58
2021/11/03 02:02:16;;;;;;;1.30;0.90;;;22.00;53.50;;;;;;5063571;28;20642;-53
2021/11/03 02:04:43;;;;;;;1.88;0.90;;;22.00;53.50;;;;;;5062494;28;20043;-58
2021/11/03 02:07:16;;;;;;;1.60;1.20;;;22.00;53.60;;;;;;5052413;28;20029;-59
2021/11/03 02:09:43;;;;;;;1.60;1.00;;;22.00;53.60;;;;;;5042410;28;20083;-59
2021/11/03 02:12:17;;;;;;;1.20;0.90;;;22.00;53.60;;;;;;5039350;28;20121;-59
2021/11/03 02:14:42;;;;;;;1.48;0.98;;;22.00;53.60;;;;;;5034377;28;20041;-59
2021/11/03 02:17:08;;;;;;;1.70;1.00;;;21.90;53.60;;;;;;5044812;28;20667;-56
2021/11/03 02:19:35;;;;;;;1.70;1.00;;;21.90;53.60;;;;;;5056536;28;20036;-58
2021/11/03 02:22:16;;;;;;;1.40;1.00;;;21.90;53.60;;;;;;5051388;28;20117;-58
2021/11/03 02:25:03;;;;;;;1.48;0.98;;;21.90;53.60;;;;;;5037165;28;20037;-58
2021/11/03 02:27:31;;;;;;;1.33;0.85;;;21.90;53.60;;;;;;5045140;28;20103;-55
2021/11/03 02:29:57;;;;;;;1.70;1.10;;;21.90;53.60;;;;;;5045383;28;20036;-58
2021/11/03 02:32:31;;;;;;;1.02;0.85;;;21.90;53.60;;;;;;5035822;28;20030;-58
2021/11/03 02:34:57;;;;;;;1.23;0.80;;;21.90;53.70;;;;;;5048820;28;20020;-58
2021/11/03 02:37:29;;;;;;;1.25;0.90;;;21.90;53.70;;;;;;5043307;28;20098;-58
2021/11/03 02:40:29;;;;;;;1.40;1.00;;;21.90;53.70;;;;;;5041277;28;20246;-59
2021/11/03 02:43:03;;;;;;;0.95;0.82;;;21.80;53.70;;;;;;5049716;28;20025;-58
2021/11/03 02:45:47;;;;;;;1.48;0.90;;;21.80;53.70;;;;;;5044221;28;20067;-57
2021/11/03 02:48:14;;;;;;;0.77;0.70;;;21.80;53.70;;;;;;5047063;28;20449;-58
2021/11/03 02:51:02;;;;;;;1.50;1.00;;;21.80;53.70;;;;;;5041199;28;20025;-55
2021/11/03 02:53:30;;;;;;;1.27;0.90;;;21.80;53.80;;;;;;5050104;28;20112;-54
2021/11/03 02:55:55;;;;;;;1.27;1.00;;;21.80;53.80;;;;;;5039392;28;20115;-57
2021/11/03 02:58:21;;;;;;;1.25;0.82;;;21.80;53.80;;;;;;5041733;28;20132;-59
2021/11/03 03:00:48;;;;;;;1.35;0.80;;;21.80;53.80;;;;;;5043090;28;20044;-56
2021/11/03 03:03:14;;;;;;;1.30;0.90;;;21.80;53.80;;;;;;5045430;28;20033;-58
2021/11/03 03:05:47;;;;;;;1.83;1.00;;;21.80;53.90;;;;;;5050162;28;20441;-55
2021/11/03 03:08:12;;;;;;;1.30;0.90;;;21.70;53.80;;;;;;5040297;28;20033;-59
2021/11/03 03:10:38;;;;;;;1.30;0.82;;;21.70;53.80;;;;;;5049889;28;20308;-58
2021/11/03 03:13:03;;;;;;;1.27;0.80;;;21.70;53.80;;;;;;5043683;28;20041;-58
2021/11/03 03:15:29;;;;;;;2.03;1.00;;;21.70;53.80;;;;;;5049830;28;20093;-58
2021/11/03 03:17:55;;;;;;;1.05;0.80;;;21.70;53.80;;;;;;5042383;28;20030;-58
2021/11/03 03:20:20;;;;;;;1.10;0.90;;;21.70;53.80;;;;;;5051659;28;20032;-58
2021/11/03 03:22:46;;;;;;;1.30;1.02;;;21.70;53.80;;;;;;5051779;28;20044;-58
2021/11/03 03:25:11;;;;;;;1.52;0.90;;;21.70;53.80;;;;;;5045659;28;20992;-58
2021/11/03 03:27:37;;;;;;;1.02;0.90;;;21.70;53.80;;;;;;5029956;28;20095;-58
2021/11/03 03:30:04;;;;;;;1.35;0.90;;;21.70;53.80;;;;;;5035700;28;20049;-56
2021/11/03 03:32:30;;;;;;;1.10;0.90;;;21.70;53.90;;;;;;5041000;28;20037;-58
2021/11/03 03:34:56;;;;;;;1.58;0.90;;;21.70;53.90;;;;;;5037255;28;20451;-53
2021/11/03 03:37:21;;;;;;;1.38;0.80;;;21.60;53.80;;;;;;5052716;28;20029;-58
2021/11/03 03:39:47;;;;;;;0.70;0.70;;;21.60;53.90;;;;;;5037084;28;20116;-57
2021/11/03 03:42:16;;;;;;;2.05;0.88;;;21.60;53.90;;;;;;5050317;28;20044;-58
2021/11/03 03:44:43;;;;;;;1.20;0.90;;;21.60;53.90;;;;;;5052106;28;20044;-58
2021/11/03 03:47:10;;;;;;;1.85;1.30;;;21.60;53.90;;;;;;5039312;28;20128;-58
2021/11/03 03:49:35;;;;;;;1.67;1.02;;;21.60;53.90;;;;;;5039083;28;20029;-56
2021/11/03 03:52:02;;;;;;;1.25;0.90;;;21.60;54.00;;;;;;5036772;28;20025;-59
2021/11/03 03:54:28;;;;;;;1.58;0.90;;;21.60;53.90;;;;;;5050204;28;20032;-58
2021/11/03 03:56:54;;;;;;;1.45;0.95;;;21.60;54.00;;;;;;5041862;28;20087;-59
2021/11/03 03:59:20;;;;;;;1.08;0.90;;;21.60;53.90;;;;;;5053134;28;20085;-58
2021/11/03 04:01:46;;;;;;;1.20;0.98;;;21.60;54.00;;;;;;5034845;28;20438;-59
2021/11/03 04:04:12;;;;;;;1.10;0.80;;;21.60;54.00;;;;;;5052255;28;20480;-57
2021/11/03 04:06:38;;;;;;;1.23;0.90;;;21.60;54.00;;;;;;5063792;28;20024;-58
2021/11/03 04:09:06;;;;;;;1.35;0.90;;;21.60;54.00;;;;;;5065587;28;20028;-56
2021/11/03 04:11:32;;;;;;;0.70;0.70;;;21.60;54.00;;;;;;5040893;28;20041;-58
2021/11/03 04:13:58;;;;;;;1.23;0.93;;;21.60;54.00;;;;;;5049955;28;20161;-58
2021/11/03 04:16:23;;;;;;;1.23;0.80;;;21.60;54.00;;;;;;5057262;28;20136;-59
2021/11/03 04:18:49;;;;;;;1.05;0.80;;;21.50;54.00;;;;;;5046176;28;20044;-58
2021/11/03 04:21:15;;;;;;;1.60;0.90;;;21.50;54.00;;;;;;5036883;28;20025;-58
2021/11/03 04:23:41;;;;;;;1.13;0.80;;;21.50;54.00;;;;;;5043033;28;20060;-58
2021/11/03 04:26:21;;;;;;;1.30;0.80;;;21.50;54.10;;;;;;5039001;28;20129;-58
2021/11/03 04:28:47;;;;;;;1.05;0.80;;;21.50;54.10;;;;;;5038743;28;20029;-59
2021/11/03 04:31:12;;;;;;;1.23;0.80;;;21.50;54.10;;;;;;5035565;28;20029;-58
2021/11/03 04:33:38;;;;;;;1.00;0.70;;;21.50;54.10;;;;;;5042522;28;20029;-53
2021/11/03 04:36:04;;;;;;;0.90;0.73;;;21.50;54.10;;;;;;5061117;28;20031;-55
2021/11/03 04:38:30;;;;;;;0.98;0.80;;;21.50;54.10;;;;;;5046383;28;20095;-57
2021/11/03 04:40:55;;;;;;;1.00;0.70;;;21.50;54.20;;;;;;5039362;28;20136;-58
2021/11/03 04:43:21;;;;;;;0.82;0.70;;;21.40;54.10;;;;;;5035582;28;20032;-58
2021/11/03 04:45:46;;;;;;;1.30;0.90;;;21.50;54.20;;;;;;5044883;28;20120;-54
2021/11/03 04:48:12;;;;;;;1.40;0.80;;;21.40;54.20;;;;;;5029424;28;20113;-53
2021/11/03 04:50:38;;;;;;;1.52;0.85;;;21.40;54.20;;;;;;5041190;28;20025;-58
2021/11/03 04:53:03;;;;;;;0.85;0.70;;;21.40;54.20;;;;;;5036963;28;20043;-59
2021/11/03 04:55:29;;;;;;;1.17;0.80;;;21.40;54.20;;;;;;5057552;28;20423;-58
2021/11/03 04:57:55;;;;;;;0.88;0.70;;;21.40;54.20;;;;;;5036289;28;20040;-59
2021/11/03 05:00:26;;;;;;;0.77;0.70;;;21.40;54.20;;;;;;5037005;28;20524;-57
2021/11/03 05:02:52;;;;;;;1.20;0.80;;;21.40;54.20;;;;;;5032987;28;20028;-58
2021/11/03 05:05:18;;;;;;;0.75;0.65;;;21.40;54.20;;;;;;5055292;28;20429;-58
2021/11/03 05:07:44;;;;;;;0.68;0.68;;;21.40;54.20;;;;;;5047546;28;20063;-54
2021/11/03 05:10:10;;;;;;;1.83;0.90;;;21.40;54.30;;;;;;5037030;28;20078;-57
2021/11/03 05:12:36;;;;;;;1.02;0.73;;;21.40;54.30;;;;;;5034145;28;20026;-58
2021/11/03 05:15:02;;;;;;;1.27;0.70;;;21.40;54.30;;;;;;5056532;28;20107;-57
2021/11/03 05:17:28;;;;;;;0.80;0.70;;;21.40;54.30;;;;;;5036177;28;20050;-58
2021/11/03 05:19:54;;;;;;;0.70;0.70;;;21.40;54.30;;;;;;5034606;28;20037;-58
2021/11/03 05:22:20;;;;;;;0.70;0.70;;;21.40;54.30;;;;;;5049772;28;20120;-58
2021/11/03 05:24:46;;;;;;;0.73;0.73;;;21.40;54.30;;;;;;5035728;28;20389;-55
2021/11/03 05:27:14;;;;;;;0.63;0.60;;;21.40;54.30;;;;;;5036836;28;20039;-58
2021/11/03 05:29:41;;;;;;;1.50;0.80;;;21.40;54.30;;;;;;5044583;28;20053;-58
2021/11/03 05:32:07;;;;;;;0.80;0.70;;;21.30;54.30;;;;;;5042572;28;20044;-58
2021/11/03 05:34:33;;;;;;;0.85;0.70;;;21.40;54.30;;;;;;5038530;28;20128;-58
2021/11/03 05:36:58;;;;;;;0.75;0.70;;;21.30;54.30;;;;;;5051278;28;20385;-58
2021/11/03 05:39:25;;;;;;;1.60;0.82;;;21.30;54.30;;;;;;5042290;28;20033;-57
2021/11/03 05:41:51;;;;;;;1.10;0.73;;;21.30;54.30;;;;;;5040367;28;20036;-58
2021/11/03 05:44:18;;;;;;;1.40;0.75;;;21.30;54.30;;;;;;5043751;28;20037;-58
2021/11/03 05:46:57;;;;;;;1.17;0.80;;;21.30;54.30;;;;;;5049023;28;20113;-56
2021/11/03 05:49:26;;;;;;;0.60;0.60;;;21.30;54.30;;;;;;5041748;28;20082;-58
2021/11/03 05:51:53;;;;;;;1.08;0.88;;;21.30;54.30;;;;;;5042114;28;20044;-59
2021/11/03 05:54:22;;;;;;;0.93;0.75;;;21.30;54.30;;;;;;5048468;28;20516;-58
2021/11/03 05:56:48;;;;;;;0.77;0.77;;;21.30;54.30;;;;;;5045201;28;20084;-58
2021/11/03 05:59:14;;;;;;;1.20;0.90;;;21.30;54.30;;;;;;5051395;28;20048;-55
2021/11/03 06:01:40;;;;;;;1.02;0.60;;;21.30;54.30;;;;;;5047300;28;20033;-54
2021/11/03 06:04:05;;;;;;;0.65;0.60;;;21.30;54.30;;;;;;5057214;28;20030;-59
2021/11/03 06:06:32;;;;;;;0.85;0.70;;;21.30;54.30;;;;;;5031909;28;20742;-57
2021/11/03 06:08:57;;;;;;;0.93;0.70;;;21.30;54.60;;;;;;5044257;28;20021;-58
2021/11/03 06:11:25;;;;;;;0.70;0.63;;;21.30;54.30;;;;;;5044831;28;20028;-57
2021/11/03 06:13:51;;;;;;;1.30;0.80;;;21.30;54.30;;;;;;5045877;28;20079;-58
2021/11/03 06:16:17;;;;;;;1.08;0.75;;;21.30;54.80;;;;;;5041332;28;20033;-57
2021/11/03 06:18:42;;;;;;;1.33;0.80;;;21.30;54.30;;;;;;5043703;28;20044;-58
2021/11/03 06:21:08;;;;;;;1.30;0.70;;;21.30;54.30;;;;;;5033092;28;20118;-57
2021/11/03 06:23:33;;;;;;;0.90;0.70;;;21.30;54.30;;;;;;5037316;28;20535;-59
2021/11/03 06:25:59;;;;;;;1.23;0.80;;;21.20;54.20;;;;;;5043636;28;20029;-59
2021/11/03 06:28:25;;;;;;;1.25;0.88;;;21.20;54.20;;;;;;5049655;28;20063;-53
2021/11/03 06:30:51;;;;;;;1.27;0.80;;;21.30;54.30;;;;;;5057578;28;20095;-57
2021/11/03 06:33:17;;;;;;;1.20;0.80;;;21.30;54.40;;;;;;5047376;28;20666;-54
2021/11/03 06:35:44;;;;;;;0.82;0.70;;;21.30;54.30;;;;;;5036614;28;20029;-58
2021/11/03 06:38:11;;;;;;;1.00;0.70;;;21.20;54.30;;;;;;5042631;28;20429;-55
2021/11/03 06:40:37;;;;;;;0.95;0.70;;;21.20;54.30;;;;;;5050964;28;20036;-56
2021/11/03 06:43:04;;;;;;;1.15;0.70;;;21.20;54.30;;;;;;5048443;28;20028;-58
2021/11/03 06:45:31;;;;;;;1.38;0.80;;;21.20;54.30;;;;;;5043159;28;20100;-59
2021/11/03 06:47:57;;;;;;;0.73;0.70;;;21.20;54.30;;;;;;5041761;28;20417;-58
2021/11/03 06:50:30;;;;;;;0.90;0.70;;;21.20;54.30;;;;;;5050313;28;20443;-57
2021/11/03 06:52:58;;;;;;;1.20;0.80;;;21.20;54.30;;;;;;5045799;28;20028;-58
2021/11/03 06:55:24;;;;;;;0.93;0.70;;;21.20;54.30;;;;;;5050625;28;20045;-58
2021/11/03 06:57:50;;;;;;;0.88;0.68;;;21.20;54.30;;;;;;5037181;28;20032;-57
2021/11/03 07:00:23;;;;;;;0.90;0.70;;;21.20;54.30;;;;;;5036816;28;20109;-59
2021/11/03 07:02:49;;;;;;;0.85;0.60;;;21.20;54.30;;;;;;5039601;28;20049;-58
2021/11/03 07:05:15;;;;;;;1.38;0.85;;;21.20;54.30;;;;;;5042330;28;20040;-56
2021/11/03 07:07:41;;;;;;;1.83;0.70;;;21.20;54.30;;;;;;5038109;28;20029;-56
2021/11/03 07:10:08;;;;;;;1.00;0.70;;;21.20;54.30;;;;;;5060267;28;20032;-57
2021/11/03 07:12:35;;;;;;;1.10;0.80;;;21.20;54.40;;;;;;5042536;28;20025;-58
2021/11/03 07:15:00;;;;;;;0.77;0.70;;;21.20;54.30;;;;;;5043791;28;20052;-55
2021/11/03 07:17:26;;;;;;;0.80;0.80;;;21.20;54.30;;;;;;5041815;28;20430;-57
2021/11/03 07:19:52;;;;;;;0.88;0.70;;;21.20;54.40;;;;;;5040879;28;20421;-57
2021/11/03 07:22:18;;;;;;;0.85;0.77;;;21.20;54.30;;;;;;5035400;28;20082;-58
2021/11/03 07:24:43;;;;;;;1.00;0.70;;;21.20;54.30;;;;;;5037528;28;20033;-58
2021/11/03 07:27:09;;;;;;;0.70;0.60;;;21.20;54.30;;;;;;5036436;28;20025;-56
2021/11/03 07:29:37;;;;;;;0.70;0.70;;;21.10;54.30;;;;;;5044703;28;20025;-58
2021/11/03 07:32:03;;;;;;;1.10;0.80;;;21.10;54.30;;;;;;5051384;28;20036;-56
2021/11/03 07:34:29;;;;;;;1.15;0.80;;;21.20;54.40;;;;;;5043057;28;20501;-58
2021/11/03 07:36:55;;;;;;;1.48;0.82;;;21.20;54.30;;;;;;5033726;28;20120;-58
2021/11/03 07:39:21;;;;;;;0.90;0.70;;;21.20;54.30;;;;;;5059335;28;20369;-52
2021/11/03 07:41:47;;;;;;;1.17;0.73;;;21.10;54.80;;;;;;5030652;28;20061;-57
2021/11/03 07:44:16;;;;;;;1.17;0.75;;;21.20;54.40;;;;;;5038871;28;20033;-58
2021/11/03 07:46:42;;;;;;;1.00;0.70;;;21.10;54.30;;;;;;5042421;28;20021;-57
2021/11/03 07:49:07;;;;;;;1.17;0.70;;;21.10;54.30;;;;;;5035074;28;20353;-58
2021/11/03 07:51:34;;;;;;;0.90;0.70;;;21.10;54.30;;;;;;5042819;28;20033;-58
2021/11/03 07:53:59;;;;;;;1.45;0.70;;;21.10;54.30;;;;;;5040599;28;20029;-53
2021/11/03 07:56:27;;;;;;;1.30;0.77;;;21.10;54.30;;;;;;5050608;28;20025;-57
2021/11/03 07:58:53;;;;;;;1.48;0.85;;;21.10;54.30;;;;;;5045444;28;20136;-50
2021/11/03 08:01:19;;;;;;;1.73;0.70;;;21.10;54.30;;;;;;5041254;28;20030;-58
2021/11/03 08:03:45;;;;;;;0.98;0.70;;;21.10;54.30;;;;;;5040974;28;20024;-59
2021/11/03 08:06:11;;;;;;;1.30;0.80;;;21.10;54.30;;;;;;5039202;28;20021;-58
2021/11/03 08:08:45;;;;;;;0.68;0.60;;;21.10;54.30;;;;;;5047058;28;20039;-59
2021/11/03 08:11:12;;;;;;;1.15;0.85;;;21.10;54.30;;;;;;5038524;28;20032;-55
2021/11/03 08:13:38;;;;;;;1.15;0.80;;;21.10;54.30;;;;;;5034563;28;20013;-58
2021/11/03 08:16:04;;;;;;;1.23;0.80;;;21.10;54.30;;;;;;5037372;28;20029;-57
2021/11/03 08:18:37;;;;;;;1.10;0.70;;;21.10;54.30;;;;;;5042824;28;20677;-59
2021/11/03 08:21:04;;;;;;;1.25;0.70;;;21.10;54.30;;;;;;5032201;28;20044;-58
2021/11/03 08:23:29;;;;;;;1.67;0.80;;;21.10;54.30;;;;;;5035823;28;20033;-58
2021/11/03 08:25:55;;;;;;;1.40;0.82;;;21.10;54.30;;;;;;5041943;28;20029;-57
2021/11/03 08:28:21;;;;;;;0.98;0.73;;;21.10;54.30;;;;;;5036947;28;20033;-59
2021/11/03 08:30:50;;;;;;;1.58;0.80;;;21.10;54.30;;;;;;5043971;28;20116;-58
2021/11/03 08:33:20;;;;;;;1.33;0.83;;;21.10;54.40;;;;;;5040334;28;20016;-59
2021/11/03 08:35:49;;;;;;;0.90;0.80;;;21.10;54.30;;;;;;5035178;28;20037;-58
2021/11/03 08:38:17;;;;;;;1.15;0.80;;;21.10;54.40;;;;;;5035484;28;20698;-59
2021/11/03 08:40:44;;;;;;;1.17;0.80;;;21.10;54.30;;;;;;5032902;28;20428;-58
2021/11/03 08:43:13;;;;;;;0.90;0.73;;;21.10;54.30;;;;;;5044610;28;20036;-57
2021/11/03 08:45:39;;;;;;;1.55;0.85;;;21.10;54.30;;;;;;5031554;28;20033;-55
2021/11/03 08:48:06;;;;;;;1.00;0.85;;;21.00;54.30;;;;;;5039334;28;20024;-58
2021/11/03 08:50:35;;;;;;;1.23;0.77;;;21.00;54.40;;;;;;5039917;28;20021;-58
2021/11/03 08:53:01;;;;;;;0.68;0.68;;;21.00;54.40;;;;;;5031584;28;20026;-56
2021/11/03 08:55:31;;;;;;;1.13;0.70;;;21.10;54.40;;;;;;5034113;28;20034;-59
2021/11/03 08:57:57;;;;;;;;;;;21.00;54.40;;;;;;5040959;28;20021;-57
2021/11/03 09:00:29;;;;;;;0.95;0.73;;;21.10;54.40;;;;;;5041180;28;20004;-58
2021/11/03 09:02:56;;;;;;;1.08;0.82;;;21.10;54.40;;;;;;5037691;28;20092;-57
2021/11/03 09:05:24;;;;;;;1.63;0.80;;;21.00;54.30;;;;;;5032563;28;20057;-58
2021/11/03 09:07:50;;;;;;;1.60;0.98;;;21.10;54.40;;;;;;5031658;28;20079;-59
2021/11/03 09:10:17;;;;;;;1.50;0.98;;;21.10;54.40;;;;;;5043838;28;20639;-58
2021/11/03 09:12:47;;;;;;;1.27;0.85;;;21.10;54.40;;;;;;5048683;28;20040;-58
2021/11/03 09:15:14;;;;;;;0.88;0.70;;;21.10;54.50;;;;;;5036566;28;20040;-57
2021/11/03 09:17:40;;;;;;;1.40;0.85;;;21.20;54.60;;;;;;5046335;28;20107;-56
2021/11/03 09:20:08;;;;;;;1.20;0.80;;;21.20;54.60;;;;;;5039391;28;20051;-57
2021/11/03 09:22:36;;;;;;;1.15;0.70;;;21.20;54.50;;;;;;5034365;28;20033;-55
2021/11/03 09:25:04;;;;;;;2.40;0.80;;;21.20;54.50;;;;;;5044995;28;20121;-55
2021/11/03 09:27:30;;;;;;;1.30;0.77;;;21.20;54.40;;;;;;5044063;28;20155;-57
2021/11/03 09:29:56;;;;;;;3.25;0.80;;;21.20;54.30;;;;;;5040043;28;20037;-56
2021/11/03 09:32:23;;;;;;;1.73;0.80;;;21.20;54.30;;;;;;5032594;28;20115;-56
2021/11/03 09:34:51;;;;;;;1.33;0.80;;;21.30;54.20;;;;;;5045122;28;20902;-54
2021/11/03 09:37:20;;;;;;;1.58;0.90;;;21.30;54.10;;;;;;5034544;28;20530;-56
2021/11/03 09:39:47;;;;;;;1.88;0.93;;;21.40;54.10;;;;;;5029379;28;20037;-58
2021/11/03 09:42:15;;;;;;;1.75;0.90;;;21.40;54.00;;;;;;5033763;28;20048;-57
2021/11/03 09:44:43;;;;;;;2.63;1.10;;;21.40;53.80;;;;;;5037027;28;20076;-58
2021/11/03 09:47:16;;;;;;;1.30;0.90;;;21.50;53.80;;;;;;5037584;28;20036;-58
2021/11/03 09:49:49;;;;;;;2.30;0.80;;;21.50;53.70;;;;;;5036205;28;20017;-56
2021/11/03 09:52:26;;;;;;;1.45;0.80;;;21.50;53.80;;;;;;5030635;28;20044;-55
2021/11/03 09:55:01;;;;;;;1.83;0.80;;;21.60;54.00;;;;;;5026128;28;20547;-56
2021/11/03 09:57:46;;;;;;;1.25;0.80;;;21.50;53.90;;;;;;5035216;28;20041;-52
2021/11/03 10:00:32;;;;;;;1.75;0.75;;;21.60;53.90;;;;;;5034052;28;20065;-58
2021/11/03 10:03:25;;;;;;;1.33;0.93;;;21.50;53.70;;;;;;5032489;28;20033;-58
2021/11/03 10:06:15;;;;;;;1.95;1.02;;;21.60;53.70;;;;;;5039087;28;20164;-58
2021/11/03 10:08:45;;;;;;;2.13;1.00;;;21.60;53.50;;;;;;5033264;28;20028;-58
2021/11/03 10:11:19;;;;;;;2.70;1.00;;;21.60;53.50;;;;;;5034544;28;20952;-59
2021/11/03 10:13:46;;;;;;;1.55;0.80;;;21.60;53.40;;;;;;5039538;28;20041;-57
2021/11/03 10:16:15;;;;;;;1.35;0.80;;;21.60;53.30;;;;;;5035802;28;20032;-58
2021/11/03 10:19:08;;;;;;;2.77;0.90;;;21.60;53.20;;;;;;5043175;28;20032;-51
2021/11/03 10:22:02;;;;;;;1.92;0.90;;;21.60;53.10;;;;;;5032342;28;20040;-58
2021/11/03 10:24:41;;;;;;;1.15;0.70;;;21.70;53.10;;;;;;5029362;28;20044;-57
2021/11/03 10:27:09;;;;;;;1.52;0.80;;;21.70;53.10;;;;;;5041222;28;20580;-57
2021/11/03 10:29:35;;;;;;;1.20;0.80;;;21.70;53.10;;;;;;5037848;28;20081;-57
2021/11/03 10:32:09;;;;;;;1.42;0.77;;;21.70;53.10;;;;;;5028167;28;20068;-57
2021/11/03 10:34:34;;;;;;;1.40;0.80;;;21.70;53.00;;;;;;5037779;28;20050;-56
2021/11/03 10:37:16;;;;;;;4.78;0.98;;;21.70;53.00;;;;;;5039351;28;20033;-56
2021/11/03 10:39:48;;;;;;;1.30;0.80;;;21.70;53.00;;;;;;5030238;28;20067;-55
2021/11/03 10:42:27;;;;;;;1.30;0.90;;;21.70;53.00;;;;;;5034180;28;20031;-56
2021/11/03 10:45:12;;;;;;;1.25;0.60;;;21.70;53.00;;;;;;5028914;28;20042;-55
2021/11/03 10:47:39;;;;;;;2.17;0.73;;;21.70;53.00;;;;;;5035844;28;20029;-58
2021/11/03 10:50:40;;;;;;;2.92;0.75;;;21.70;53.00;;;;;;5028542;28;20154;-57
2021/11/03 10:53:22;;;;;;;3.47;1.48;;;21.70;53.00;;;;;;5033426;28;20546;-56
2021/11/03 10:56:06;;;;;;;2.10;0.90;;;21.70;53.00;;;;;;5036049;28;20024;-58
2021/11/03 10:58:37;;;;;;;1.75;0.73;;;21.70;53.00;;;;;;5035832;28;20036;-57
2021/11/03 11:01:11;;;;;;;2.25;0.80;;;21.70;53.10;;;;;;5038194;28;20795;-58
2021/11/03 11:03:49;;;;;;;2.10;0.70;;;21.70;53.10;;;;;;5030265;28;20033;-54
2021/11/03 11:06:22;;;;;;;2.78;0.90;;;21.70;53.10;;;;;;5038915;28;20112;-54
2021/11/03 11:09:02;;;;;;;2.38;0.90;;;21.70;53.00;;;;;;5040109;28;20029;-59
2021/11/03 11:11:30;;;;;;;1.55;0.80;;;21.70;53.00;;;;;;5040020;28;20093;-58
2021/11/03 11:14:01;;;;;;;3.00;1.00;;;21.70;53.10;;;;;;5039110;28;20029;-52
2021/11/03 11:16:36;;;;;;;2.30;0.82;;;21.70;53.10;;;;;;5039621;28;20037;-59
2021/11/03 11:19:31;;;;;;;1.13;0.80;;;21.70;53.10;;;;;;5038071;28;20083;-57
2021/11/03 11:22:26;;;;;;;3.03;0.90;;;21.70;53.00;;;;;;5036812;28;20044;-58
2021/11/03 11:25:19;;;;;;;2.70;0.90;;;21.70;53.10;;;;;;5045141;28;20166;-53
2021/11/03 11:28:11;;;;;;;1.42;0.70;;;21.70;53.10;;;;;;5034516;28;20111;-54
2021/11/03 11:31:12;;;;;;;2.33;0.90;;;21.70;53.00;;;;;;5036145;28;20037;-56
2021/11/03 11:33:53;;;;;;;2.53;0.75;;;21.70;53.00;;;;;;5029085;28;20040;-52
2021/11/03 11:36:28;;;;;;;1.90;0.60;;;21.70;53.10;;;;;;5032802;28;20033;-54
2021/11/03 11:39:28;;;;;;;1.98;0.95;;;21.70;53.10;;;;;;5030788;28;20028;-57
2021/11/03 11:42:17;;;;;;;1.77;0.90;;;21.80;53.20;;;;;;5048005;28;20028;-57
2021/11/03 11:44:56;;;;;;;2.33;0.90;;;21.80;53.10;;;;;;5049728;28;20036;-59
2021/11/03 11:47:32;;;;;;;;;;;21.80;53.00;;;;;;5037968;28;20037;-58
2021/11/03 11:49:58;;;;;;;2.05;0.85;;;21.80;53.20;;;;;;5031485;28;19921;-58
2021/11/03 11:52:27;;;;;;;2.30;1.00;;;21.80;53.10;;;;;;5030223;28;20049;-60
2021/11/03 11:55:10;;;;;;;2.63;1.00;;;21.90;53.10;;;;;;5028873;28;20120;-51
2021/11/03 11:57:38;;;;;;;2.78;0.80;;;21.90;53.10;;;;;;5039616;28;20048;-57
2021/11/03 12:00:07;;;;;;;2.50;0.85;;;21.80;53.10;;;;;;5038227;28;20760;-60
2021/11/03 12:02:44;;;;;;;2.00;0.90;;;21.80;53.10;;;;;;5047358;28;20511;-57
2021/11/03 12:05:45;;;;;;;1.77;0.90;;;21.80;53.10;;;;;;5045712;28;20472;-56
2021/11/03 12:08:11;;;;;;;1.65;0.82;;;21.90;53.10;;;;;;5032391;28;20035;-57
2021/11/03 12:10:43;;;;;;;2.75;1.05;;;21.90;53.10;;;;;;5046918;28;20083;-55
2021/11/03 12:13:08;;;;;;;1.92;0.75;;;21.90;53.10;;;;;;5033152;28;20086;-58
2021/11/03 12:15:56;;;;;;;2.20;0.98;;;21.90;53.10;;;;;;5033771;28;20040;-58
2021/11/03 12:18:28;;;;;;;1.88;0.90;;;21.90;53.10;;;;;;5050210;28;20111;-58
2021/11/03 12:21:03;;;;;;;2.72;1.00;;;21.90;53.10;;;;;;5041106;28;20432;-57
2021/11/03 12:23:49;;;;;;;1.55;0.93;;;21.90;53.10;;;;;;5027853;28;20036;-56
2021/11/03 12:26:25;;;;;;;1.60;0.88;;;21.90;53.10;;;;;;5028890;28;20799;-54
2021/11/03 12:29:16;;;;;;;2.50;1.10;;;21.90;53.20;;;;;;5029423;28;20436;-58
2021/11/03 12:31:52;;;;;;;2.53;1.02;;;21.90;53.20;;;;;;5025836;28;20029;-55
2021/11/03 12:34:31;;;;;;;3.45;0.90;;;21.90;53.20;;;;;;5031613;28;20065;-54
2021/11/03 12:36:59;;;;;;;2.65;0.93;;;21.90;53.20;;;;;;5031312;28;20029;-55
2021/11/03 12:39:28;;;;;;;3.63;1.10;;;21.90;53.20;;;;;;5033136;28;20424;-58
2021/11/03 12:42:00;;;;;;;2.67;0.90;;;21.90;53.20;;;;;;5031872;28;20544;-55
2021/11/03 12:44:33;;;;;;;2.38;1.10;;;21.90;53.20;;;;;;5030581;28;20384;-58
2021/11/03 12:47:00;;;;;;;2.05;1.00;;;21.90;53.20;;;;;;5030323;28;20472;-58
2021/11/03 12:49:28;;;;;;;2.97;1.10;;;21.90;53.20;;;;;;5028462;28;20553;-54
2021/11/03 12:52:00;;;;;;;2.55;1.10;;;21.90;53.20;;;;;;5037611;28;20032;-58
2021/11/03 12:54:32;;;;;;;2.55;1.02;;;21.90;53.20;;;;;;5038400;28;20180;-55
2021/11/03 12:57:06;;;;;;;3.47;1.17;;;21.90;53.20;;;;;;5032499;28;20035;-58
2021/11/03 12:59:40;;;;;;;2.67;1.20;;;21.90;53.20;;;;;;5036757;28;20068;-56
2021/11/03 13:02:24;;;;;;;2.30;1.20;;;21.90;53.20;;;;;;5032480;28;20060;-55